Time;durP1;ratioP1;P1;durP2;ratioP2;P2;SDS_P1;SDS_P2;PMS_P1;PMS_P2;Temp;Humidity;BMP_temperature;BMP_pressure;BME280_temperature;BME280_humidity;BME280_pressure;Samples;Min_cycle;Max_cycle;Signal;HPM_P1;HPM_P2
2023/10/03 00:00:28;;;;;;;32.88;20.40;;;16.60;99.90;;;;;;4990348;28;20137;-72
2023/10/03 00:03:01;;;;;;;31.10;19.45;;;16.70;99.90;;;;;;4999948;28;20030;-72
2023/10/03 00:05:28;;;;;;;26.90;17.98;;;16.70;99.90;;;;;;4994485;28;20046;-72
2023/10/03 00:07:59;;;;;;;29.33;19.52;;;16.60;99.90;;;;;;4996790;28;20109;-73
2023/10/03 00:10:25;;;;;;;27.90;18.58;;;16.50;99.90;;;;;;4991647;28;20555;-72
2023/10/03 00:12:51;;;;;;;28.60;19.42;;;16.40;99.90;;;;;;4997136;28;20072;-72
2023/10/03 00:15:25;;;;;;;34.30;20.88;;;16.30;99.90;;;;;;5000272;28;20117;-72
2023/10/03 00:17:52;;;;;;;29.95;20.00;;;16.30;99.90;;;;;;4996147;28;20073;-72
2023/10/03 00:20:18;;;;;;;37.53;22.20;;;16.40;99.90;;;;;;4996027;28;20113;-72
2023/10/03 00:22:45;;;;;;;32.40;22.02;;;16.50;99.90;;;;;;4984510;28;20460;-71
2023/10/03 00:25:34;;;;;;;34.15;21.08;;;16.70;99.90;;;;;;5000177;28;20144;-72
2023/10/03 00:27:59;;;;;;;31.67;21.23;;;16.80;99.90;;;;;;4999487;28;20402;-72
2023/10/03 00:30:26;;;;;;;30.23;20.25;;;16.90;99.90;;;;;;4995757;28;20030;-72
2023/10/03 00:32:52;;;;;;;32.28;21.50;;;16.80;99.90;;;;;;4998651;28;20120;-72
2023/10/03 00:35:20;;;;;;;28.30;19.30;;;16.80;99.90;;;;;;4995207;28;20420;-72
2023/10/03 00:37:50;;;;;;;30.50;20.50;;;16.70;99.90;;;;;;4988244;28;20551;-72
2023/10/03 00:42:47;;;;;;;33.30;20.83;;;16.50;99.90;;;;;;4990029;28;20090;-71
2023/10/03 00:45:22;;;;;;;33.95;20.85;;;16.50;99.90;;;;;;4989242;28;20035;-72
2023/10/03 00:47:49;;;;;;;36.22;20.50;;;16.50;99.90;;;;;;4994609;28;20030;-72
2023/10/03 00:50:23;;;;;;;38.95;21.25;;;16.50;99.90;;;;;;4996483;28;20113;-72
2023/10/03 00:52:55;;;;;;;33.92;20.23;;;16.50;99.90;;;;;;4989642;28;20026;-72
2023/10/03 00:55:32;;;;;;;34.72;20.52;;;16.50;99.90;;;;;;4993619;28;20109;-72
2023/10/03 00:58:07;;;;;;;33.17;20.67;;;16.50;99.90;;;;;;4991580;28;20088;-73
2023/10/03 01:00:43;;;;;;;;;;;16.40;99.90;;;;;;4997195;28;20073;-73
2023/10/03 01:03:37;;;;;;;32.05;20.17;;;16.30;99.90;;;;;;5001312;28;20295;-73
2023/10/03 01:06:09;;;;;;;31.42;20.33;;;16.30;99.90;;;;;;4989486;28;20030;-74
2023/10/03 01:08:39;;;;;;;31.58;19.65;;;16.30;99.90;;;;;;4994597;28;20026;-73
2023/10/03 01:11:16;;;;;;;31.05;20.73;;;16.10;99.90;;;;;;4988117;28;20085;-73
2023/10/03 01:13:53;;;;;;;30.48;20.60;;;16.10;99.90;;;;;;4996828;28;20035;-73
2023/10/03 01:16:33;;;;;;;33.30;20.83;;;16.20;99.90;;;;;;4995246;28;20550;-73
2023/10/03 01:18:59;;;;;;;32.05;20.52;;;16.20;99.90;;;;;;4990527;28;20113;-73
2023/10/03 01:21:28;;;;;;;35.67;19.35;;;16.20;99.90;;;;;;4994809;28;20030;-73
2023/10/03 01:23:54;;;;;;;30.98;20.40;;;16.20;99.90;;;;;;5001614;28;20026;-73
2023/10/03 01:26:21;;;;;;;33.22;20.92;;;16.20;99.90;;;;;;4992168;28;20092;-73
2023/10/03 01:28:48;;;;;;;30.65;20.58;;;16.10;99.90;;;;;;5000838;28;20034;-73
2023/10/03 01:31:14;;;;;;;38.22;20.92;;;16.30;99.90;;;;;;4988298;28;20033;-73
2023/10/03 01:33:39;;;;;;;34.25;19.38;;;16.40;99.90;;;;;;4989481;28;20034;-73
2023/10/03 01:36:06;;;;;;;35.08;19.30;;;16.40;99.90;;;;;;4989142;28;20096;-73
2023/10/03 01:38:31;;;;;;;27.25;19.23;;;16.20;99.90;;;;;;4988220;28;20429;-72
2023/10/03 01:41:00;;;;;;;34.63;18.98;;;16.10;99.90;;;;;;4992997;28;20037;-73
2023/10/03 01:43:26;;;;;;;31.75;20.10;;;16.00;99.90;;;;;;4986321;28;20031;-73
2023/10/03 01:45:53;;;;;;;32.67;19.50;;;15.90;99.90;;;;;;4988984;28;20052;-73
2023/10/03 01:48:19;;;;;;;33.70;19.60;;;16.10;99.90;;;;;;4994826;28;20901;-73
2023/10/03 01:50:45;;;;;;;31.05;20.30;;;16.00;99.90;;;;;;4987692;28;20508;-73
2023/10/03 01:53:11;;;;;;;29.33;18.25;;;16.10;99.90;;;;;;4996360;28;20081;-73
2023/10/03 01:55:38;;;;;;;31.88;19.30;;;16.00;99.90;;;;;;4996246;28;20022;-73
2023/10/03 01:58:05;;;;;;;31.92;20.05;;;16.00;99.90;;;;;;4987681;28;20026;-73
2023/10/03 02:00:31;;;;;;;35.25;21.05;;;16.00;99.90;;;;;;5002175;28;20108;-73
2023/10/03 02:03:05;;;;;;;35.13;20.02;;;16.00;99.90;;;;;;4996103;28;20030;-73
2023/10/03 02:05:40;;;;;;;32.40;19.15;;;16.00;99.90;;;;;;4994895;28;20036;-73
2023/10/03 02:08:20;;;;;;;30.30;19.88;;;16.00;99.90;;;;;;4987482;28;20454;-73
2023/10/03 02:10:48;;;;;;;31.77;19.55;;;16.10;99.90;;;;;;4997362;28;20066;-73
2023/10/03 02:13:14;;;;;;;33.15;21.25;;;15.90;99.90;;;;;;4990565;28;20027;-73
2023/10/03 02:15:44;;;;;;;33.88;19.85;;;15.90;99.90;;;;;;4995034;28;20616;-73
2023/10/03 02:18:10;;;;;;;34.05;20.33;;;15.70;99.90;;;;;;4990686;28;20041;-73
2023/10/03 02:20:46;;;;;;;33.67;20.55;;;15.70;99.90;;;;;;5005576;28;20555;-73
2023/10/03 02:23:17;;;;;;;33.47;19.48;;;15.80;99.90;;;;;;4993229;28;20061;-73
2023/10/03 02:25:43;;;;;;;30.63;19.05;;;15.90;99.90;;;;;;4999870;28;20022;-73
2023/10/03 02:28:09;;;;;;;31.95;19.10;;;15.90;99.90;;;;;;4991469;28;20032;-73
2023/10/03 02:30:36;;;;;;;32.90;20.23;;;15.80;99.90;;;;;;5003603;28;20064;-73
2023/10/03 02:33:12;;;;;;;36.08;18.77;;;15.60;99.90;;;;;;4999123;28;20571;-73
2023/10/03 02:35:39;;;;;;;39.30;20.92;;;15.60;99.90;;;;;;4992811;28;20037;-73
2023/10/03 02:38:10;;;;;;;36.30;19.98;;;15.60;99.90;;;;;;4997205;28;20041;-73
2023/10/03 02:40:35;;;;;;;34.80;18.75;;;15.50;99.90;;;;;;4997098;28;20042;-73
2023/10/03 02:43:01;;;;;;;30.00;19.10;;;15.40;99.90;;;;;;4999892;28;20061;-73
2023/10/03 02:45:27;;;;;;;35.22;19.23;;;15.30;99.90;;;;;;4997213;28;20388;-73
2023/10/03 02:48:01;;;;;;;38.70;20.23;;;15.30;99.90;;;;;;4996703;28;20481;-73
2023/10/03 02:50:27;;;;;;;31.27;19.33;;;15.40;99.90;;;;;;4998542;28;20034;-73
2023/10/03 02:52:56;;;;;;;36.03;19.80;;;15.40;99.90;;;;;;4998774;28;20030;-73
2023/10/03 02:55:22;;;;;;;32.95;20.08;;;15.30;99.90;;;;;;5003769;28;20030;-73
2023/10/03 02:57:48;;;;;;;35.10;18.90;;;15.40;99.90;;;;;;4995450;28;20034;-73
2023/10/03 03:00:15;;;;;;;33.50;20.02;;;15.50;99.90;;;;;;4996701;28;20125;-71
2023/10/03 03:02:48;;;;;;;33.65;19.77;;;15.60;99.90;;;;;;4993917;28;20053;-73
2023/10/03 03:05:17;;;;;;;32.22;19.88;;;15.60;99.90;;;;;;4993609;28;20091;-73
2023/10/03 03:07:57;;;;;;;32.03;20.17;;;15.60;99.90;;;;;;4990094;28;20033;-73
2023/10/03 03:10:24;;;;;;;33.72;18.73;;;15.60;99.90;;;;;;4985892;28;20042;-73
2023/10/03 03:12:50;;;;;;;34.88;19.30;;;15.50;99.90;;;;;;4997625;28;20038;-73
2023/10/03 03:15:22;;;;;;;32.53;19.58;;;15.60;99.90;;;;;;4984863;28;20042;-73
2023/10/03 03:17:50;;;;;;;32.33;17.88;;;15.50;99.90;;;;;;4987926;28;20026;-74
2023/10/03 03:20:21;;;;;;;28.00;18.48;;;15.60;99.90;;;;;;4986804;28;20022;-73
2023/10/03 03:22:52;;;;;;;34.75;19.00;;;15.50;99.90;;;;;;4987496;28;20060;-73
2023/10/03 03:25:24;;;;;;;29.90;18.48;;;15.50;99.90;;;;;;4986524;28;20053;-73
2023/10/03 03:27:52;;;;;;;31.75;17.60;;;15.50;99.90;;;;;;4990266;28;20022;-73
2023/10/03 03:32:53;;;;;;;30.13;17.70;;;15.50;99.90;;;;;;4997478;28;20041;-73
2023/10/03 03:35:22;;;;;;;32.38;18.00;;;15.50;99.90;;;;;;4991391;28;20027;-73
2023/10/03 03:37:48;;;;;;;34.58;19.45;;;15.50;99.90;;;;;;4999527;28;20037;-73
2023/10/03 03:40:29;;;;;;;30.10;16.95;;;15.60;99.90;;;;;;4991764;28;20482;-73
2023/10/03 03:43:04;;;;;;;32.97;18.83;;;15.50;99.90;;;;;;4986433;28;20049;-73
2023/10/03 03:45:30;;;;;;;33.83;18.73;;;15.40;99.90;;;;;;4994218;28;20045;-73
2023/10/03 03:47:56;;;;;;;35.15;18.75;;;15.40;99.90;;;;;;4993457;28;20026;-73
2023/10/03 03:50:22;;;;;;;30.02;18.15;;;15.40;99.90;;;;;;4977803;28;20423;-73
2023/10/03 03:52:52;;;;;;;32.05;18.35;;;15.50;99.90;;;;;;4985967;28;20088;-73
2023/10/03 03:55:17;;;;;;;32.50;18.52;;;15.50;99.90;;;;;;4985135;28;20858;-73
2023/10/03 03:57:46;;;;;;;30.90;17.42;;;15.50;99.90;;;;;;4990524;28;20037;-73
2023/10/03 04:00:19;;;;;;;34.88;19.55;;;15.40;99.90;;;;;;4987996;28;20144;-73
2023/10/03 04:02:45;;;;;;;30.88;17.25;;;15.50;99.90;;;;;;4989742;28;20566;-73
2023/10/03 04:05:12;;;;;;;34.50;18.45;;;15.50;99.90;;;;;;4981758;28;20037;-73
2023/10/03 04:07:39;;;;;;;33.15;18.75;;;15.50;99.90;;;;;;4991339;28;20496;-73
2023/10/03 04:10:13;;;;;;;30.95;18.27;;;15.40;99.90;;;;;;4982761;28;20076;-73
2023/10/03 04:12:42;;;;;;;33.03;18.27;;;15.40;99.90;;;;;;4987880;28;20113;-73
2023/10/03 04:15:18;;;;;;;34.13;18.60;;;15.40;99.90;;;;;;4985449;28;20030;-73
2023/10/03 04:17:44;;;;;;;30.50;18.08;;;15.20;99.90;;;;;;4986100;28;20070;-73
2023/10/03 04:20:23;;;;;;;30.70;17.80;;;15.40;99.90;;;;;;4987011;28;20040;-73
2023/10/03 04:22:52;;;;;;;33.05;18.25;;;15.30;99.90;;;;;;4967113;28;20037;-73
2023/10/03 04:25:22;;;;;;;31.75;16.17;;;15.40;99.90;;;;;;4990993;28;20033;-73
2023/10/03 04:27:49;;;;;;;33.92;17.23;;;15.20;99.90;;;;;;4987004;28;20033;-73
2023/10/03 04:30:16;;;;;;;31.40;17.42;;;15.20;99.90;;;;;;4996847;28;20042;-74
2023/10/03 04:32:42;;;;;;;26.75;16.10;;;15.20;99.90;;;;;;4987460;28;20461;-73
2023/10/03 04:35:12;;;;;;;35.95;19.98;;;15.10;99.90;;;;;;4989540;28;20046;-73
2023/10/03 04:37:42;;;;;;;32.30;18.38;;;15.00;99.90;;;;;;4990630;28;20096;-73
2023/10/03 04:40:16;;;;;;;32.13;16.88;;;15.00;99.90;;;;;;4988558;28;20026;-73
2023/10/03 04:42:45;;;;;;;33.95;18.05;;;15.10;99.90;;;;;;4983733;28;20044;-73
2023/10/03 04:45:14;;;;;;;31.50;16.20;;;15.30;99.90;;;;;;4981823;28;20026;-73
2023/10/03 04:47:45;;;;;;;32.10;17.60;;;15.50;99.90;;;;;;4981530;28;20027;-73
2023/10/03 04:50:11;;;;;;;34.42;18.40;;;15.50;99.90;;;;;;4984478;28;20112;-73
2023/10/03 04:52:38;;;;;;;32.30;17.08;;;15.70;99.90;;;;;;4982029;28;20026;-73
2023/10/03 04:55:04;;;;;;;35.92;19.27;;;15.60;99.90;;;;;;4985943;28;20034;-73
2023/10/03 04:57:30;;;;;;;31.52;17.05;;;15.70;99.90;;;;;;4968776;28;20096;-73
2023/10/03 05:00:04;;;;;;;31.55;16.55;;;15.60;99.90;;;;;;4985443;28;20514;-73
2023/10/03 05:02:30;;;;;;;29.50;16.45;;;15.60;99.90;;;;;;4988316;28;20512;-73
2023/10/03 05:04:56;;;;;;;32.35;17.90;;;15.60;99.90;;;;;;4984202;28;20108;-73
2023/10/03 05:07:25;;;;;;;32.78;16.77;;;15.60;99.90;;;;;;4982813;28;20377;-73
2023/10/03 05:09:52;;;;;;;29.15;16.83;;;15.40;99.90;;;;;;4985893;28;20149;-73
2023/10/03 05:12:18;;;;;;;34.05;16.30;;;15.40;99.90;;;;;;4995104;28;20030;-73
2023/10/03 05:14:46;;;;;;;32.28;18.05;;;15.50;99.90;;;;;;4994743;28;20026;-73
2023/10/03 05:17:13;;;;;;;32.17;17.27;;;15.50;99.90;;;;;;4989853;28;20026;-73
2023/10/03 05:19:39;;;;;;;29.08;17.38;;;15.60;99.90;;;;;;4989230;28;20030;-73
2023/10/03 05:22:08;;;;;;;37.28;18.77;;;15.50;99.90;;;;;;4988166;28;20157;-72
2023/10/03 05:24:34;;;;;;;35.15;16.98;;;15.40;99.90;;;;;;4986061;28;20412;-72
2023/10/03 05:27:00;;;;;;;33.90;16.65;;;15.40;99.90;;;;;;4981052;28;20125;-72
2023/10/03 05:29:27;;;;;;;28.80;15.98;;;15.40;99.90;;;;;;4981852;28;20163;-71
2023/10/03 05:31:54;;;;;;;33.83;18.65;;;15.40;99.90;;;;;;4985347;28;20034;-72
2023/10/03 05:34:23;;;;;;;32.75;17.88;;;15.50;99.90;;;;;;4987643;28;20117;-73
2023/10/03 05:36:49;;;;;;;27.25;16.33;;;15.40;99.90;;;;;;4981565;28;20022;-72
2023/10/03 05:39:15;;;;;;;31.13;16.45;;;15.40;99.90;;;;;;4981962;28;20027;-72
2023/10/03 05:41:42;;;;;;;32.30;17.75;;;15.40;99.90;;;;;;4987832;28;20388;-72
2023/10/03 05:44:12;;;;;;;32.22;16.35;;;15.60;99.90;;;;;;4983828;28;20054;-72
2023/10/03 05:46:42;;;;;;;31.17;16.67;;;15.60;99.90;;;;;;4990180;28;20137;-72
2023/10/03 05:49:09;;;;;;;32.30;17.85;;;15.50;99.90;;;;;;4987892;28;20562;-72
2023/10/03 05:51:35;;;;;;;28.23;16.75;;;15.50;99.90;;;;;;4980832;28;20058;-72
2023/10/03 05:54:02;;;;;;;36.10;17.52;;;15.50;99.90;;;;;;4992721;28;20058;-72
2023/10/03 05:56:28;;;;;;;32.55;15.55;;;15.50;99.90;;;;;;4998126;28;20030;-72
2023/10/03 05:58:54;;;;;;;32.90;17.70;;;15.50;99.90;;;;;;4995446;28;20088;-72
2023/10/03 06:01:20;;;;;;;36.72;17.52;;;15.40;99.90;;;;;;4996793;28;20449;-71
2023/10/03 06:03:46;;;;;;;34.53;17.33;;;15.40;99.90;;;;;;4994761;28;20291;-72
2023/10/03 06:06:12;;;;;;;28.70;17.20;;;15.40;99.90;;;;;;4987952;28;20034;-71
2023/10/03 06:08:37;;;;;;;31.98;16.60;;;15.30;99.90;;;;;;4994128;28;20022;-72
2023/10/03 06:11:03;;;;;;;32.13;17.52;;;15.40;99.90;;;;;;4989656;28;20037;-72
2023/10/03 06:13:29;;;;;;;30.77;17.48;;;15.30;99.90;;;;;;4989395;28;20026;-71
2023/10/03 06:15:59;;;;;;;30.38;17.73;;;15.40;99.90;;;;;;4991972;28;20018;-71
2023/10/03 06:18:27;;;;;;;35.15;17.00;;;15.20;99.90;;;;;;4989545;28;20109;-72
2023/10/03 06:20:53;;;;;;;29.40;17.50;;;15.20;99.90;;;;;;4992043;28;20034;-72
2023/10/03 06:23:18;;;;;;;30.75;17.98;;;15.30;99.90;;;;;;4990024;28;20080;-71
2023/10/03 06:25:44;;;;;;;34.00;17.52;;;15.30;99.90;;;;;;4988325;28;20034;-71
2023/10/03 06:28:09;;;;;;;31.25;15.40;;;15.40;99.90;;;;;;4987065;28;20097;-71
2023/10/03 06:30:38;;;;;;;29.95;15.93;;;15.40;99.90;;;;;;4984119;28;20362;-71
2023/10/03 06:33:05;;;;;;;34.25;15.77;;;15.50;99.90;;;;;;4994889;28;20092;-73
2023/10/03 06:35:32;;;;;;;32.40;16.52;;;15.60;99.90;;;;;;4989064;28;20030;-71
2023/10/03 06:37:58;;;;;;;30.65;16.30;;;15.60;99.90;;;;;;4990484;28;20026;-71
2023/10/03 06:40:23;;;;;;;31.52;16.80;;;15.70;99.90;;;;;;4986932;28;20033;-71
2023/10/03 06:42:49;;;;;;;32.22;18.13;;;15.80;99.90;;;;;;4987769;28;20140;-71
2023/10/03 06:45:15;;;;;;;34.63;17.38;;;16.00;99.90;;;;;;4988018;28;20038;-71
2023/10/03 06:47:40;;;;;;;31.25;16.73;;;16.10;99.90;;;;;;4984898;28;20030;-71
2023/10/03 06:50:07;;;;;;;28.50;17.40;;;16.10;99.90;;;;;;4992077;28;20487;-71
2023/10/03 06:52:34;;;;;;;30.65;17.27;;;16.00;99.90;;;;;;4988258;28;20250;-72
2023/10/03 06:55:01;;;;;;;34.20;17.42;;;15.80;99.90;;;;;;4989608;28;20030;-71
2023/10/03 06:57:27;;;;;;;33.55;16.67;;;15.80;99.90;;;;;;4992602;28;20022;-72
2023/10/03 06:59:56;;;;;;;33.70;18.13;;;15.90;99.90;;;;;;4989576;28;20050;-71
2023/10/03 07:02:22;;;;;;;32.40;17.73;;;16.00;99.90;;;;;;4989716;28;20041;-71
2023/10/03 07:04:47;;;;;;;33.42;17.88;;;16.20;99.90;;;;;;4990465;28;20033;-71
2023/10/03 07:07:13;;;;;;;30.73;16.88;;;15.90;99.90;;;;;;4996751;28;20108;-71
2023/10/03 07:09:39;;;;;;;31.73;15.98;;;15.90;99.90;;;;;;4987014;28;20137;-71
2023/10/03 07:12:08;;;;;;;30.90;16.48;;;16.00;99.90;;;;;;4992052;28;20026;-71
2023/10/03 07:14:37;;;;;;;33.00;18.27;;;16.30;99.90;;;;;;4992486;28;20112;-71
2023/10/03 07:17:03;;;;;;;32.90;16.05;;;16.40;99.90;;;;;;5000181;28;20896;-72
2023/10/03 07:19:30;;;;;;;28.77;15.20;;;16.50;99.90;;;;;;4987306;28;20046;-71
2023/10/03 07:21:57;;;;;;;28.63;16.58;;;16.60;99.90;;;;;;4983093;28;20041;-71
2023/10/03 07:24:24;;;;;;;30.13;16.50;;;16.60;99.90;;;;;;4987971;28;20488;-71
2023/10/03 07:26:51;;;;;;;29.88;17.58;;;16.60;99.90;;;;;;4984852;28;20620;-71
2023/10/03 07:29:17;;;;;;;35.47;18.08;;;16.50;99.90;;;;;;4986040;28;20034;-72
2023/10/03 07:31:43;;;;;;;30.92;18.20;;;16.40;99.90;;;;;;4994142;28;20061;-71
2023/10/03 07:34:09;;;;;;;31.33;17.95;;;16.30;99.90;;;;;;4986210;28;20038;-71
2023/10/03 07:36:36;;;;;;;31.55;17.88;;;16.30;99.90;;;;;;4984511;28;20493;-72
2023/10/03 07:39:03;;;;;;;30.02;16.38;;;16.30;99.90;;;;;;4989627;28;20038;-71
2023/10/03 07:41:29;;;;;;;34.90;17.60;;;16.40;99.90;;;;;;4987740;28;20428;-71
2023/10/03 07:43:54;;;;;;;34.22;19.17;;;16.60;99.90;;;;;;4989166;28;20034;-72
2023/10/03 07:46:27;;;;;;;29.02;15.07;;;16.60;99.90;;;;;;4995468;28;20033;-71
2023/10/03 07:48:53;;;;;;;30.17;16.92;;;16.70;99.90;;;;;;4985838;28;20494;-71
2023/10/03 07:51:29;;;;;;;34.88;19.23;;;16.70;99.90;;;;;;4982511;28;20045;-71
2023/10/03 07:53:55;;;;;;;34.40;17.00;;;16.60;99.90;;;;;;4991569;28;20327;-71
2023/10/03 07:56:25;;;;;;;31.27;17.48;;;16.60;99.90;;;;;;4994411;28;20603;-71
2023/10/03 07:58:54;;;;;;;32.50;17.80;;;16.50;99.90;;;;;;4994883;28;20042;-72
2023/10/03 08:01:27;;;;;;;34.90;17.95;;;16.60;99.90;;;;;;4990586;28;20029;-71
2023/10/03 08:03:53;;;;;;;36.58;17.17;;;16.70;99.90;;;;;;4995424;28;20037;-72
2023/10/03 08:06:23;;;;;;;30.30;18.40;;;16.70;99.90;;;;;;5003363;28;20026;-72
2023/10/03 08:09:00;;;;;;;33.95;17.60;;;16.80;99.90;;;;;;4995943;28;20037;-73
2023/10/03 08:11:30;;;;;;;35.50;17.95;;;16.90;99.90;;;;;;4996185;28;20128;-73
2023/10/03 08:14:00;;;;;;;33.97;16.67;;;16.90;99.90;;;;;;4994023;28;20116;-72
2023/10/03 08:16:34;;;;;;;32.75;17.55;;;17.00;99.90;;;;;;4984838;28;20063;-73
2023/10/03 08:19:01;;;;;;;37.17;20.00;;;17.00;99.90;;;;;;4983108;28;20026;-73
2023/10/03 08:21:30;;;;;;;30.92;18.55;;;17.10;99.90;;;;;;4990475;28;20041;-72
2023/10/03 08:23:57;;;;;;;38.13;17.98;;;17.10;99.90;;;;;;4985884;28;20027;-72
2023/10/03 08:26:25;;;;;;;35.75;17.83;;;17.10;99.90;;;;;;4993580;28;20030;-72
2023/10/03 08:28:59;;;;;;;30.98;16.20;;;17.20;99.90;;;;;;4989092;28;20568;-72
2023/10/03 08:31:28;;;;;;;30.63;16.95;;;17.30;99.90;;;;;;4995269;28;20030;-72
2023/10/03 08:33:57;;;;;;;33.45;19.08;;;17.40;99.90;;;;;;4985118;28;20030;-72
2023/10/03 08:36:27;;;;;;;34.13;18.48;;;17.30;99.90;;;;;;4983930;28;20069;-72
2023/10/03 08:39:04;;;;;;;32.38;17.02;;;17.30;99.90;;;;;;4991646;28;20026;-72
2023/10/03 08:41:45;;;;;;;34.60;17.98;;;17.40;99.90;;;;;;4995892;28;20041;-72
2023/10/03 08:44:12;;;;;;;31.30;18.05;;;17.50;99.90;;;;;;4986157;28;20022;-72
2023/10/03 08:46:48;;;;;;;34.13;17.63;;;17.50;99.90;;;;;;4983286;28;20033;-72
2023/10/03 08:49:17;;;;;;;32.00;17.50;;;17.60;99.90;;;;;;4991194;28;20025;-71
2023/10/03 08:51:45;;;;;;;34.42;18.80;;;17.70;99.90;;;;;;4988139;28;20026;-72
2023/10/03 08:54:12;;;;;;;34.15;17.42;;;17.80;99.90;;;;;;4983238;28;20698;-72
2023/10/03 08:56:41;;;;;;;35.58;18.08;;;17.90;99.90;;;;;;4991053;28;20599;-72
2023/10/03 08:59:10;;;;;;;36.13;17.35;;;17.90;99.90;;;;;;4951863;28;1140826;-71
2023/10/03 09:01:43;;;;;;;33.05;17.23;;;18.00;99.90;;;;;;4985446;28;20579;-72
2023/10/03 09:04:16;;;;;;;29.30;16.90;;;18.00;99.90;;;;;;4985017;28;20919;-72
2023/10/03 09:06:49;;;;;;;29.27;15.80;;;18.10;99.90;;;;;;4984829;28;20026;-71
2023/10/03 09:09:16;;;;;;;32.97;17.53;;;18.10;99.90;;;;;;4990257;28;20034;-71
2023/10/03 09:11:43;;;;;;;34.85;17.52;;;18.20;99.90;;;;;;4983513;28;20074;-71
2023/10/03 09:14:19;;;;;;;35.22;16.73;;;18.20;99.90;;;;;;4985493;28;20027;-71
2023/10/03 09:16:50;;;;;;;28.58;16.73;;;18.30;99.90;;;;;;4985240;28;20077;-73
2023/10/03 09:19:23;;;;;;;35.85;19.42;;;18.30;99.90;;;;;;4986473;28;20019;-72
2023/10/03 09:21:51;;;;;;;31.58;17.90;;;18.40;99.90;;;;;;4984320;28;20030;-73
2023/10/03 09:24:24;;;;;;;32.40;17.52;;;18.30;99.90;;;;;;4985586;28;20062;-72
2023/10/03 09:26:51;;;;;;;36.13;17.10;;;18.60;99.90;;;;;;4983641;28;20038;-72
2023/10/03 09:29:30;;;;;;;30.88;17.30;;;18.70;99.90;;;;;;4987580;28;20026;-72
2023/10/03 09:31:58;;;;;;;30.50;16.77;;;18.80;99.90;;;;;;4988447;28;20068;-72
2023/10/03 09:34:30;;;;;;;35.72;15.20;;;18.70;99.90;;;;;;5000474;28;20030;-72
2023/10/03 09:37:02;;;;;;;33.95;17.45;;;18.80;99.90;;;;;;4991731;28;20061;-72
2023/10/03 09:39:30;;;;;;;33.05;17.90;;;18.80;99.90;;;;;;4998619;28;20022;-72
2023/10/03 09:41:57;;;;;;;35.08;17.25;;;19.00;99.90;;;;;;4998552;28;20482;-72
2023/10/03 09:44:32;;;;;;;31.85;18.17;;;19.00;99.90;;;;;;4990148;28;20081;-71
2023/10/03 09:47:06;;;;;;;31.92;17.70;;;19.10;99.90;;;;;;4987266;28;20026;-72
2023/10/03 09:49:38;;;;;;;35.33;18.02;;;19.10;99.90;;;;;;4996589;28;20045;-72
2023/10/03 09:52:25;;;;;;;31.60;17.40;;;19.30;99.90;;;;;;4988139;28;20029;-72
2023/10/03 09:54:54;;;;;;;37.97;17.40;;;19.40;99.90;;;;;;4987693;28;20117;-72
2023/10/03 09:57:28;;;;;;;34.28;18.48;;;19.40;99.90;;;;;;4987005;28;20026;-72
2023/10/03 09:59:55;;;;;;;37.70;19.58;;;19.40;99.90;;;;;;4993446;28;20605;-72
2023/10/03 10:02:33;;;;;;;32.83;17.67;;;19.50;99.90;;;;;;4987503;28;20153;-72
2023/10/03 10:05:19;;;;;;;33.42;17.58;;;19.50;99.90;;;;;;4988581;28;20594;-72
2023/10/03 10:08:06;;;;;;;33.17;17.67;;;19.60;99.90;;;;;;4992475;28;20037;-72
2023/10/03 10:10:33;;;;;;;32.20;17.13;;;19.80;99.90;;;;;;5010045;28;20038;-71
2023/10/03 10:13:21;;;;;;;28.98;17.10;;;20.00;99.90;;;;;;5010657;28;20477;-72
2023/10/03 10:16:07;;;;;;;30.85;16.25;;;20.10;99.90;;;;;;5010658;28;20038;-72
2023/10/03 10:18:45;;;;;;;88.60;20.85;;;20.10;99.90;;;;;;5010109;28;20671;-72
2023/10/03 10:21:20;;;;;;;32.15;16.30;;;20.00;99.90;;;;;;5010810;28;20121;-72
2023/10/03 10:24:20;;;;;;;33.42;17.45;;;20.10;99.90;;;;;;5010769;28;20638;-72
2023/10/03 10:26:52;;;;;;;37.80;17.80;;;20.10;99.90;;;;;;5010043;28;20018;-72
2023/10/03 10:29:31;;;;;;;34.75;17.60;;;20.30;99.90;;;;;;5010244;28;20033;-72
2023/10/03 10:32:17;;;;;;;33.17;15.65;;;20.50;99.90;;;;;;5009028;28;20033;-72
2023/10/03 10:34:46;;;;;;;33.85;17.58;;;20.70;99.90;;;;;;5010334;28;20061;-72
2023/10/03 10:37:17;;;;;;;34.28;18.60;;;20.90;99.90;;;;;;5010148;28;20033;-72
2023/10/03 10:39:56;;;;;;;33.20;17.98;;;21.00;99.90;;;;;;5009813;28;20022;-72
2023/10/03 10:42:25;;;;;;;32.75;18.27;;;21.10;99.90;;;;;;5007195;28;20526;-72
2023/10/03 10:45:15;;;;;;;34.67;16.85;;;21.10;99.90;;;;;;4996449;28;20037;-72
2023/10/03 10:47:46;;;;;;;34.10;17.08;;;21.10;99.90;;;;;;5010113;28;20050;-72
2023/10/03 10:50:12;;;;;;;32.67;17.50;;;21.20;99.90;;;;;;5009685;28;20520;-72
2023/10/03 10:52:57;;;;;;;36.63;17.83;;;21.20;99.90;;;;;;5007727;28;20036;-72
2023/10/03 10:55:25;;;;;;;35.15;17.98;;;21.20;99.90;;;;;;5006634;28;20397;-72
2023/10/03 10:58:08;;;;;;;31.70;18.23;;;21.20;99.90;;;;;;5004613;28;20041;-72
2023/10/03 11:00:34;;;;;;;30.33;17.15;;;21.40;99.90;;;;;;5006261;28;20533;-72
2023/10/03 11:03:05;;;;;;;34.05;17.77;;;21.50;99.90;;;;;;5006704;28;20408;-72
2023/10/03 11:05:47;;;;;;;35.47;18.23;;;21.70;99.90;;;;;;4995266;28;20504;-72
2023/10/03 11:08:14;;;;;;;30.83;17.63;;;21.90;99.90;;;;;;5009209;28;20037;-72
2023/10/03 11:10:53;;;;;;;34.58;17.30;;;22.10;99.90;;;;;;4986591;28;20038;-72
2023/10/03 11:13:22;;;;;;;35.95;18.45;;;22.10;99.90;;;;;;4985640;28;20034;-72
2023/10/03 11:15:49;;;;;;;32.42;17.30;;;22.10;99.90;;;;;;4992675;28;20496;-71
2023/10/03 11:18:17;;;;;;;31.88;18.08;;;22.10;99.90;;;;;;4986262;28;20604;-72
2023/10/03 11:20:43;;;;;;;32.92;17.95;;;22.20;99.90;;;;;;4989599;28;20030;-73
2023/10/03 11:23:16;;;;;;;30.33;17.98;;;22.10;99.90;;;;;;4991238;28;20388;-74
2023/10/03 11:26:10;;;;;;;35.72;18.30;;;21.90;99.90;;;;;;4984215;28;20101;-72
2023/10/03 11:28:51;;;;;;;37.30;18.47;;;22.00;99.90;;;;;;4985676;28;20025;-72
2023/10/03 11:31:17;;;;;;;33.72;17.27;;;22.00;99.90;;;;;;4981507;28;20041;-73
2023/10/03 11:33:45;;;;;;;31.40;16.80;;;22.10;99.90;;;;;;4983400;28;20064;-73
2023/10/03 11:36:12;;;;;;;31.98;17.75;;;22.10;99.90;;;;;;4985126;28;20030;-72
2023/10/03 11:38:49;;;;;;;36.03;17.15;;;22.00;99.90;;;;;;4984158;28;20671;-73
2023/10/03 11:41:31;;;;;;;32.95;17.55;;;22.10;99.90;;;;;;4990387;28;20077;-72
2023/10/03 11:43:56;;;;;;;33.22;17.63;;;22.50;99.90;;;;;;4984106;28;20045;-73
2023/10/03 11:46:22;;;;;;;32.97;17.00;;;22.80;99.90;;;;;;4987037;28;20072;-73
2023/10/03 11:48:56;;;;;;;29.60;16.90;;;22.80;99.90;;;;;;4983954;28;20037;-72
2023/10/03 11:51:22;;;;;;;35.42;18.48;;;22.80;99.90;;;;;;4981685;28;20512;-72
2023/10/03 11:53:48;;;;;;;28.63;16.77;;;22.80;99.90;;;;;;4985715;28;20030;-73
2023/10/03 11:56:17;;;;;;;33.50;18.40;;;22.80;99.90;;;;;;4983667;28;20034;-72
2023/10/03 11:58:42;;;;;;;30.95;17.10;;;23.00;99.90;;;;;;4985522;28;20046;-73
2023/10/03 12:01:08;;;;;;;29.33;17.17;;;23.20;99.90;;;;;;4990848;28;20078;-73
2023/10/03 12:03:34;;;;;;;30.67;16.42;;;23.10;99.90;;;;;;4990030;28;20577;-72
2023/10/03 12:06:00;;;;;;;31.77;17.05;;;23.20;99.90;;;;;;4988844;28;20030;-73
2023/10/03 12:08:25;;;;;;;31.88;17.05;;;23.10;99.90;;;;;;4983612;28;20038;-72
2023/10/03 12:10:51;;;;;;;30.77;17.88;;;23.10;99.90;;;;;;4987592;28;20052;-72
2023/10/03 12:13:17;;;;;;;35.42;18.23;;;23.30;99.90;;;;;;4978248;28;20072;-72
2023/10/03 12:15:43;;;;;;;28.60;16.80;;;23.40;99.90;;;;;;4988007;28;20041;-72
2023/10/03 12:18:09;;;;;;;31.23;16.50;;;23.30;99.90;;;;;;4991087;28;20419;-73
2023/10/03 12:20:38;;;;;;;32.85;17.73;;;23.30;99.90;;;;;;4989161;28;20526;-73
2023/10/03 12:23:04;;;;;;;35.50;17.52;;;23.40;99.90;;;;;;4990820;28;20037;-73
2023/10/03 12:25:30;;;;;;;28.52;17.13;;;23.50;99.90;;;;;;4990387;28;20476;-72
2023/10/03 12:27:55;;;;;;;32.55;18.08;;;23.50;99.90;;;;;;4991314;28;20442;-73
2023/10/03 12:30:22;;;;;;;30.50;18.23;;;23.50;99.90;;;;;;4981454;28;20038;-74
2023/10/03 12:32:50;;;;;;;33.95;17.17;;;23.50;99.90;;;;;;4988493;28;20402;-72
2023/10/03 12:35:17;;;;;;;34.00;17.15;;;23.40;99.90;;;;;;4980567;28;20030;-72
2023/10/03 12:37:44;;;;;;;32.95;17.75;;;23.20;99.90;;;;;;4981749;28;20037;-71
2023/10/03 12:40:15;;;;;;;30.73;16.90;;;23.00;99.90;;;;;;4981796;28;20030;-72
2023/10/03 12:42:48;;;;;;;32.42;17.25;;;23.00;99.90;;;;;;4988361;28;20081;-72
2023/10/03 12:45:17;;;;;;;28.67;16.80;;;23.00;99.90;;;;;;4983943;28;20034;-73